Rogart, United Kingdom
Current Conditions -  °F | °C
As of 5:20 PM on Thursday 27 Nov 2014 (Local Time) from EGPE Reporting Station
Scattered Clouds Scattered Clouds  
Wind Chill:   Ceiling: Unl
Heat Index:   Visibility: 6mi
Dew Point:   Wind: 5mph
Humidity: 100%   Direction: 90°E
Pressure: 29.62"   Gusts: NA
Location:  57.99°N, 4.16°W
Report Text: EGPE 271720Z 09004KT 9000 FEW005 SCT025 06/06 Q1003
Loading
Personal Weather Stations






























Interactive Weather Map New forecast layout! Learn more

10-Day Weather Forecast

Advertisements
Track Severe Weather on mobile